sensor_id;sensor_type;location;lat;lon;timestamp;temperature;humidity
1644;DHT22;46825;51.99869940;8.49421771;2023-05-19T00:00:18;8.40;99.90
1644;DHT22;46825;51.99869940;8.49421771;2023-05-19T00:01:19;8.40;99.90
1644;DHT22;46825;51.99869940;8.49421771;2023-05-19T00:02:20;8.40;99.90
1644;DHT22;46825;51.99869940;8.49421771;2023-05-19T00:03:20;8.40;99.90
1644;DHT22;46825;51.99869940;8.49421771;2023-05-19T00:04:22;8.40;99.90
1644;DHT22;46825;51.99869940;8.49421771;2023-05-19T00:05:22;8.40;99.90
1644;DHT22;46825;51.99869940;8.49421771;2023-05-19T00:06:27;8.40;99.90
1644;DHT22;46825;51.99869940;8.49421771;2023-05-19T00:07:30;8.40;99.90
1644;DHT22;46825;51.99869940;8.49421771;2023-05-19T00:08:33;8.40;99.90
1644;DHT22;46825;51.99869940;8.49421771;2023-05-19T00:09:33;8.40;99.90
1644;DHT22;46825;51.99869940;8.49421771;2023-05-19T00:10:34;8.40;99.90
1644;DHT22;46825;51.99869940;8.49421771;2023-05-19T00:11:36;8.40;99.90
1644;DHT22;46825;51.99869940;8.49421771;2023-05-19T00:12:37;8.40;99.90
1644;DHT22;46825;51.99869940;8.49421771;2023-05-19T00:13:38;8.40;99.90
1644;DHT22;46825;51.99869940;8.49421771;2023-05-19T00:14:39;8.40;99.90
1644;DHT22;46825;51.99869940;8.49421771;2023-05-19T00:15:40;8.30;99.90
1644;DHT22;46825;51.99869940;8.49421771;2023-05-19T00:16:41;8.30;99.90
1644;DHT22;46825;51.99869940;8.49421771;2023-05-19T00:17:42;8.30;99.90
1644;DHT22;46825;51.99869940;8.49421771;2023-05-19T00:18:42;8.30;99.90
1644;DHT22;46825;51.99869940;8.49421771;2023-05-19T00:19:43;8.30;99.90
1644;DHT22;46825;51.99869940;8.49421771;2023-05-19T00:20:44;8.40;99.90
1644;DHT22;46825;51.99869940;8.49421771;2023-05-19T00:21:44;8.40;99.90
1644;DHT22;46825;51.99869940;8.49421771;2023-05-19T00:22:45;8.40;99.90
1644;DHT22;46825;51.99869940;8.49421771;2023-05-19T00:23:46;8.40;99.90
1644;DHT22;46825;51.99869940;8.49421771;2023-05-19T00:24:46;8.30;99.90
1644;DHT22;46825;51.99869940;8.49421771;2023-05-19T00:25:47;8.30;99.90
1644;DHT22;46825;51.99869940;8.49421771;2023-05-19T00:26:47;8.30;99.90
1644;DHT22;46825;51.99869940;8.49421771;2023-05-19T00:27:48;8.30;99.90
1644;DHT22;46825;51.99869940;8.49421771;2023-05-19T00:28:49;8.30;99.90
1644;DHT22;46825;51.99869940;8.49421771;2023-05-19T00:29:50;8.30;99.90
1644;DHT22;46825;51.99869940;8.49421771;2023-05-19T00:30:50;8.30;99.90
1644;DHT22;46825;51.99869940;8.49421771;2023-05-19T00:31:51;8.30;99.90
1644;DHT22;46825;51.99869940;8.49421771;2023-05-19T00:32:52;8.30;99.90
1644;DHT22;46825;51.99869940;8.49421771;2023-05-19T00:33:53;8.30;99.90
1644;DHT22;46825;51.99869940;8.49421771;2023-05-19T00:34:53;8.30;99.90
1644;DHT22;46825;51.99869940;8.49421771;2023-05-19T00:35:54;8.30;99.90
1644;DHT22;46825;51.99869940;8.49421771;2023-05-19T00:36:54;8.40;99.90
1644;DHT22;46825;51.99869940;8.49421771;2023-05-19T00:37:55;8.30;99.90
1644;DHT22;46825;51.99869940;8.49421771;2023-05-19T00:38:56;8.30;99.90
1644;DHT22;46825;51.99869940;8.49421771;2023-05-19T00:39:57;8.30;99.90
1644;DHT22;46825;51.99869940;8.49421771;2023-05-19T00:40:59;8.30;99.90
1644;DHT22;46825;51.99869940;8.49421771;2023-05-19T00:42:00;8.30;99.90
1644;DHT22;46825;51.99869940;8.49421771;2023-05-19T00:43:02;8.30;99.90
1644;DHT22;46825;51.99869940;8.49421771;2023-05-19T00:44:05;8.30;99.90
1644;DHT22;46825;51.99869940;8.49421771;2023-05-19T00:45:06;8.30;99.90
1644;DHT22;46825;51.99869940;8.49421771;2023-05-19T00:46:07;8.30;99.90
1644;DHT22;46825;51.99869940;8.49421771;2023-05-19T00:47:08;8.20;99.90
1644;DHT22;46825;51.99869940;8.49421771;2023-05-19T00:48:08;8.30;99.90
1644;DHT22;46825;51.99869940;8.49421771;2023-05-19T00:49:09;8.20;99.90
1644;DHT22;46825;51.99869940;8.49421771;2023-05-19T00:50:09;8.20;99.90
1644;DHT22;46825;51.99869940;8.49421771;2023-05-19T00:51:11;8.30;99.90
1644;DHT22;46825;51.99869940;8.49421771;2023-05-19T00:52:14;8.20;99.90
1644;DHT22;46825;51.99869940;8.49421771;2023-05-19T00:53:16;8.20;99.90
1644;DHT22;46825;51.99869940;8.49421771;2023-05-19T00:54:17;8.20;99.90
1644;DHT22;46825;51.99869940;8.49421771;2023-05-19T00:55:22;8.20;99.90
1644;DHT22;46825;51.99869940;8.49421771;2023-05-19T00:56:24;8.20;99.90
1644;DHT22;46825;51.99869940;8.49421771;2023-05-19T00:57:26;8.20;99.90
1644;DHT22;46825;51.99869940;8.49421771;2023-05-19T00:58:27;8.20;99.90
1644;DHT22;46825;51.99869940;8.49421771;2023-05-19T00:59:29;8.20;99.90
1644;DHT22;46825;51.99869940;8.49421771;2023-05-19T01:00:30;8.20;99.90
1644;DHT22;46825;51.99869940;8.49421771;2023-05-19T01:01:31;8.20;99.90
1644;DHT22;46825;51.99869940;8.49421771;2023-05-19T01:02:31;8.20;99.90
1644;DHT22;46825;51.99869940;8.49421771;2023-05-19T01:03:33;8.20;99.90
1644;DHT22;46825;51.99869940;8.49421771;2023-05-19T01:04:35;8.20;99.90
1644;DHT22;46825;51.99869940;8.49421771;2023-05-19T01:05:38;8.20;99.90
1644;DHT22;46825;51.99869940;8.49421771;2023-05-19T01:06:41;8.10;99.90
1644;DHT22;46825;51.99869940;8.49421771;2023-05-19T01:07:42;8.20;99.90
1644;DHT22;46825;51.99869940;8.49421771;2023-05-19T01:08:43;8.20;99.90
1644;DHT22;46825;51.99869940;8.49421771;2023-05-19T01:09:44;8.40;99.90
1644;DHT22;46825;51.99869940;8.49421771;2023-05-19T01:10:46;7.60;99.90
1644;DHT22;46825;51.99869940;8.49421771;2023-05-19T01:11:47;8.20;99.90
1644;DHT22;46825;51.99869940;8.49421771;2023-05-19T01:12:48;8.20;99.90
1644;DHT22;46825;51.99869940;8.49421771;2023-05-19T01:13:49;8.20;99.90
1644;DHT22;46825;51.99869940;8.49421771;2023-05-19T01:14:50;8.20;99.90
1644;DHT22;46825;51.99869940;8.49421771;2023-05-19T01:15:55;8.40;99.90
1644;DHT22;46825;51.99869940;8.49421771;2023-05-19T01:17:05;8.20;99.90
1644;DHT22;46825;51.99869940;8.49421771;2023-05-19T01:18:11;8.10;99.90
1644;DHT22;46825;51.99869940;8.49421771;2023-05-19T01:20:09;8.10;99.90
1644;DHT22;46825;51.99869940;8.49421771;2023-05-19T01:21:29;8.10;99.90
1644;DHT22;46825;51.99869940;8.49421771;2023-05-19T01:23:53;8.00;99.90
1644;DHT22;46825;51.99869940;8.49421771;2023-05-19T01:25:28;8.10;99.90
1644;DHT22;46825;51.99869940;8.49421771;2023-05-19T01:28:10;8.00;99.90
1644;DHT22;46825;51.99869940;8.49421771;2023-05-19T01:30:36;8.00;99.90
1644;DHT22;46825;51.99869940;8.49421771;2023-05-19T01:31:40;8.00;99.90
1644;DHT22;46825;51.99869940;8.49421771;2023-05-19T01:32:41;8.00;99.90
1644;DHT22;46825;51.99869940;8.49421771;2023-05-19T01:33:43;8.00;99.90
1644;DHT22;46825;51.99869940;8.49421771;2023-05-19T01:34:45;8.00;99.90
1644;DHT22;46825;51.99869940;8.49421771;2023-05-19T01:35:49;8.00;99.90
1644;DHT22;46825;51.99869940;8.49421771;2023-05-19T01:36:50;8.00;99.90
1644;DHT22;46825;51.99869940;8.49421771;2023-05-19T01:37:56;8.00;99.90
1644;DHT22;46825;51.99869940;8.49421771;2023-05-19T01:38:58;7.90;99.90
1644;DHT22;46825;51.99869940;8.49421771;2023-05-19T01:39:59;7.90;99.90
1644;DHT22;46825;51.99869940;8.49421771;2023-05-19T01:41:02;7.90;99.90
1644;DHT22;46825;51.99869940;8.49421771;2023-05-19T01:42:03;7.90;99.90
1644;DHT22;46825;51.99869940;8.49421771;2023-05-19T01:43:07;6.80;99.90
1644;DHT22;46825;51.99869940;8.49421771;2023-05-19T01:44:09;7.80;99.90
1644;DHT22;46825;51.99869940;8.49421771;2023-05-19T01:45:10;8.00;99.90
1644;DHT22;46825;51.99869940;8.49421771;2023-05-19T01:46:11;7.80;99.90
1644;DHT22;46825;51.99869940;8.49421771;2023-05-19T01:47:12;7.80;99.90
1644;DHT22;46825;51.99869940;8.49421771;2023-05-19T01:48:13;7.80;99.90
1644;DHT22;46825;51.99869940;8.49421771;2023-05-19T01:49:14;7.80;99.90
1644;DHT22;46825;51.99869940;8.49421771;2023-05-19T01:50:15;7.80;99.90
1644;DHT22;46825;51.99869940;8.49421771;2023-05-19T01:51:15;7.90;99.90
1644;DHT22;46825;51.99869940;8.49421771;2023-05-19T01:52:16;7.80;99.90
1644;DHT22;46825;51.99869940;8.49421771;2023-05-19T01:53:17;7.90;99.90
1644;DHT22;46825;51.99869940;8.49421771;2023-05-19T01:54:17;7.80;99.90
1644;DHT22;46825;51.99869940;8.49421771;2023-05-19T01:55:19;7.80;99.90
1644;DHT22;46825;51.99869940;8.49421771;2023-05-19T01:56:37;7.70;99.90
1644;DHT22;46825;51.99869940;8.49421771;2023-05-19T01:58:04;7.70;99.90
1644;DHT22;46825;51.99869940;8.49421771;2023-05-19T01:59:27;7.70;99.90
1644;DHT22;46825;51.99869940;8.49421771;2023-05-19T02:01:50;7.70;99.90
1644;DHT22;46825;51.99869940;8.49421771;2023-05-19T02:07:02;7.60;99.90
1644;DHT22;46825;51.99869940;8.49421771;2023-05-19T02:08:15;7.60;99.90
1644;DHT22;46825;51.99869940;8.49421771;2023-05-19T02:09:40;7.60;99.90
1644;DHT22;46825;51.99869940;8.49421771;2023-05-19T02:10:51;7.50;99.90
1644;DHT22;46825;51.99869940;8.49421771;2023-05-19T02:13:00;7.50;99.90
1644;DHT22;46825;51.99869940;8.49421771;2023-05-19T02:14:11;7.40;99.90
1644;DHT22;46825;51.99869940;8.49421771;2023-05-19T02:15:29;7.50;99.90
1644;DHT22;46825;51.99869940;8.49421771;2023-05-19T02:16:30;7.50;99.90
1644;DHT22;46825;51.99869940;8.49421771;2023-05-19T02:17:35;7.50;99.90
1644;DHT22;46825;51.99869940;8.49421771;2023-05-19T02:18:39;7.50;99.90
1644;DHT22;46825;51.99869940;8.49421771;2023-05-19T02:19:40;7.40;99.90
1644;DHT22;46825;51.99869940;8.49421771;2023-05-19T02:20:42;7.40;99.90
1644;DHT22;46825;51.99869940;8.49421771;2023-05-19T02:21:42;7.40;99.90
1644;DHT22;46825;51.99869940;8.49421771;2023-05-19T02:22:43;7.40;99.90
1644;DHT22;46825;51.99869940;8.49421771;2023-05-19T02:23:44;7.40;99.90
1644;DHT22;46825;51.99869940;8.49421771;2023-05-19T02:24:45;7.40;99.90
1644;DHT22;46825;51.99869940;8.49421771;2023-05-19T02:25:47;7.40;99.90
1644;DHT22;46825;51.99869940;8.49421771;2023-05-19T02:26:51;7.40;99.90
1644;DHT22;46825;51.99869940;8.49421771;2023-05-19T02:27:53;7.30;99.90
1644;DHT22;46825;51.99869940;8.49421771;2023-05-19T02:28:54;7.40;99.90
1644;DHT22;46825;51.99869940;8.49421771;2023-05-19T02:29:55;7.30;99.90
1644;DHT22;46825;51.99869940;8.49421771;2023-05-19T02:30:55;7.30;99.90
1644;DHT22;46825;51.99869940;8.49421771;2023-05-19T02:31:56;7.30;99.90
1644;DHT22;46825;51.99869940;8.49421771;2023-05-19T02:32:56;7.30;99.90
1644;DHT22;46825;51.99869940;8.49421771;2023-05-19T02:33:57;7.30;99.90
1644;DHT22;46825;51.99869940;8.49421771;2023-05-19T02:34:58;7.30;99.90
1644;DHT22;46825;51.99869940;8.49421771;2023-05-19T02:35:59;7.50;99.90
1644;DHT22;46825;51.99869940;8.49421771;2023-05-19T02:36:59;7.40;99.90
1644;DHT22;46825;51.99869940;8.49421771;2023-05-19T02:38:00;7.40;99.90
1644;DHT22;46825;51.99869940;8.49421771;2023-05-19T02:39:02;7.40;99.90
1644;DHT22;46825;51.99869940;8.49421771;2023-05-19T02:40:03;7.40;99.90
1644;DHT22;46825;51.99869940;8.49421771;2023-05-19T02:41:04;7.30;99.90
1644;DHT22;46825;51.99869940;8.49421771;2023-05-19T02:42:04;7.40;99.90
1644;DHT22;46825;51.99869940;8.49421771;2023-05-19T02:43:05;7.30;99.90
1644;DHT22;46825;51.99869940;8.49421771;2023-05-19T02:44:06;7.30;99.90
1644;DHT22;46825;51.99869940;8.49421771;2023-05-19T02:45:07;7.20;99.90
1644;DHT22;46825;51.99869940;8.49421771;2023-05-19T02:46:07;7.30;99.90
1644;DHT22;46825;51.99869940;8.49421771;2023-05-19T02:47:08;7.30;99.90
1644;DHT22;46825;51.99869940;8.49421771;2023-05-19T02:48:09;7.30;99.90
1644;DHT22;46825;51.99869940;8.49421771;2023-05-19T02:49:09;7.30;99.90
1644;DHT22;46825;51.99869940;8.49421771;2023-05-19T02:50:10;8.90;99.90
1644;DHT22;46825;51.99869940;8.49421771;2023-05-19T02:51:11;7.30;99.90
1644;DHT22;46825;51.99869940;8.49421771;2023-05-19T02:52:11;7.30;99.90
1644;DHT22;46825;51.99869940;8.49421771;2023-05-19T02:53:12;7.20;99.90
1644;DHT22;46825;51.99869940;8.49421771;2023-05-19T02:54:12;7.30;99.90
1644;DHT22;46825;51.99869940;8.49421771;2023-05-19T02:55:13;7.30;99.90
1644;DHT22;46825;51.99869940;8.49421771;2023-05-19T02:56:16;7.20;99.90
1644;DHT22;46825;51.99869940;8.49421771;2023-05-19T02:57:16;7.30;99.90
1644;DHT22;46825;51.99869940;8.49421771;2023-05-19T02:58:17;7.30;99.90
1644;DHT22;46825;51.99869940;8.49421771;2023-05-19T02:59:18;7.30;99.90
1644;DHT22;46825;51.99869940;8.49421771;2023-05-19T03:00:18;7.30;99.90
1644;DHT22;46825;51.99869940;8.49421771;2023-05-19T03:01:19;7.30;99.90
1644;DHT22;46825;51.99869940;8.49421771;2023-05-19T03:02:21;7.30;99.90
1644;DHT22;46825;51.99869940;8.49421771;2023-05-19T03:03:21;7.30;99.90
1644;DHT22;46825;51.99869940;8.49421771;2023-05-19T03:04:22;7.20;99.90
1644;DHT22;46825;51.99869940;8.49421771;2023-05-19T03:05:23;7.20;99.90
1644;DHT22;46825;51.99869940;8.49421771;2023-05-19T03:06:23;7.20;99.90
1644;DHT22;46825;51.99869940;8.49421771;2023-05-19T03:07:24;7.20;99.90
1644;DHT22;46825;51.99869940;8.49421771;2023-05-19T03:08:26;7.20;99.90
1644;DHT22;46825;51.99869940;8.49421771;2023-05-19T03:09:26;7.20;99.90
1644;DHT22;46825;51.99869940;8.49421771;2023-05-19T03:10:27;7.20;99.90
1644;DHT22;46825;51.99869940;8.49421771;2023-05-19T03:11:28;7.20;99.90
1644;DHT22;46825;51.99869940;8.49421771;2023-05-19T03:12:30;7.20;99.90
1644;DHT22;46825;51.99869940;8.49421771;2023-05-19T03:13:31;7.20;99.90
1644;DHT22;46825;51.99869940;8.49421771;2023-05-19T03:14:36;7.20;99.90
1644;DHT22;46825;51.99869940;8.49421771;2023-05-19T03:15:37;7.20;99.90
1644;DHT22;46825;51.99869940;8.49421771;2023-05-19T03:16:39;7.20;99.90
1644;DHT22;46825;51.99869940;8.49421771;2023-05-19T03:17:42;7.40;99.90
1644;DHT22;46825;51.99869940;8.49421771;2023-05-19T03:18:44;7.20;99.90
1644;DHT22;46825;51.99869940;8.49421771;2023-05-19T03:19:45;7.20;99.90
1644;DHT22;46825;51.99869940;8.49421771;2023-05-19T03:20:45;7.20;99.90
1644;DHT22;46825;51.99869940;8.49421771;2023-05-19T03:21:46;7.20;99.90
1644;DHT22;46825;51.99869940;8.49421771;2023-05-19T03:22:47;7.20;99.90
1644;DHT22;46825;51.99869940;8.49421771;2023-05-19T03:23:47;7.30;99.90
1644;DHT22;46825;51.99869940;8.49421771;2023-05-19T03:24:48;7.10;99.90
1644;DHT22;46825;51.99869940;8.49421771;2023-05-19T03:25:50;7.20;99.90
1644;DHT22;46825;51.99869940;8.49421771;2023-05-19T03:26:51;7.20;99.90
1644;DHT22;46825;51.99869940;8.49421771;2023-05-19T03:27:51;7.10;99.90
1644;DHT22;46825;51.99869940;8.49421771;2023-05-19T03:28:52;7.20;99.90
1644;DHT22;46825;51.99869940;8.49421771;2023-05-19T03:29:53;7.20;99.90
1644;DHT22;46825;51.99869940;8.49421771;2023-05-19T03:30:54;7.10;99.90
1644;DHT22;46825;51.99869940;8.49421771;2023-05-19T03:31:54;7.20;99.90
1644;DHT22;46825;51.99869940;8.49421771;2023-05-19T03:32:55;7.10;99.90
1644;DHT22;46825;51.99869940;8.49421771;2023-05-19T03:33:55;7.10;99.90
1644;DHT22;46825;51.99869940;8.49421771;2023-05-19T03:34:59;7.10;99.90
1644;DHT22;46825;51.99869940;8.49421771;2023-05-19T03:36:00;7.10;99.90
1644;DHT22;46825;51.99869940;8.49421771;2023-05-19T03:37:00;7.10;99.90
1644;DHT22;46825;51.99869940;8.49421771;2023-05-19T03:38:01;7.20;99.90
1644;DHT22;46825;51.99869940;8.49421771;2023-05-19T03:39:01;7.20;99.90
1644;DHT22;46825;51.99869940;8.49421771;2023-05-19T03:40:02;7.10;99.90
1644;DHT22;46825;51.99869940;8.49421771;2023-05-19T03:41:04;7.10;99.90
1644;DHT22;46825;51.99869940;8.49421771;2023-05-19T03:42:05;7.10;99.90
1644;DHT22;46825;51.99869940;8.49421771;2023-05-19T03:43:06;7.10;99.90
1644;DHT22;46825;51.99869940;8.49421771;2023-05-19T03:44:07;7.10;99.90
1644;DHT22;46825;51.99869940;8.49421771;2023-05-19T03:45:07;7.10;99.90
1644;DHT22;46825;51.99869940;8.49421771;2023-05-19T03:46:08;7.10;99.90
1644;DHT22;46825;51.99869940;8.49421771;2023-05-19T03:47:09;7.20;99.90
1644;DHT22;46825;51.99869940;8.49421771;2023-05-19T03:48:10;7.10;99.90
1644;DHT22;46825;51.99869940;8.49421771;2023-05-19T03:49:10;7.20;99.90
1644;DHT22;46825;51.99869940;8.49421771;2023-05-19T03:50:11;7.20;99.90
1644;DHT22;46825;51.99869940;8.49421771;2023-05-19T03:51:12;7.20;99.90
1644;DHT22;46825;51.99869940;8.49421771;2023-05-19T03:52:12;7.20;99.90
1644;DHT22;46825;51.99869940;8.49421771;2023-05-19T03:53:13;7.10;99.90
1644;DHT22;46825;51.99869940;8.49421771;2023-05-19T03:54:13;7.10;99.90
1644;DHT22;46825;51.99869940;8.49421771;2023-05-19T03:55:14;7.10;99.90
1644;DHT22;46825;51.99869940;8.49421771;2023-05-19T03:56:15;7.10;99.90
1644;DHT22;46825;51.99869940;8.49421771;2023-05-19T03:57:17;7.10;99.90
1644;DHT22;46825;51.99869940;8.49421771;2023-05-19T03:58:18;7.20;99.90
1644;DHT22;46825;51.99869940;8.49421771;2023-05-19T03:59:18;7.20;99.90
1644;DHT22;46825;51.99869940;8.49421771;2023-05-19T04:00:19;7.20;99.90
1644;DHT22;46825;51.99869940;8.49421771;2023-05-19T04:01:20;7.10;99.90
1644;DHT22;46825;51.99869940;8.49421771;2023-05-19T04:02:20;7.20;99.90
1644;DHT22;46825;51.99869940;8.49421771;2023-05-19T04:03:21;7.20;99.90
1644;DHT22;46825;51.99869940;8.49421771;2023-05-19T04:04:21;7.20;99.90
1644;DHT22;46825;51.99869940;8.49421771;2023-05-19T04:05:22;7.20;99.90
1644;DHT22;46825;51.99869940;8.49421771;2023-05-19T04:06:22;7.20;99.90
1644;DHT22;46825;51.99869940;8.49421771;2023-05-19T04:07:23;7.20;99.90
1644;DHT22;46825;51.99869940;8.49421771;2023-05-19T04:08:24;7.20;99.90
1644;DHT22;46825;51.99869940;8.49421771;2023-05-19T04:09:25;7.20;99.90
1644;DHT22;46825;51.99869940;8.49421771;2023-05-19T04:10:26;7.30;99.90
1644;DHT22;46825;51.99869940;8.49421771;2023-05-19T04:11:26;7.20;99.90
1644;DHT22;46825;51.99869940;8.49421771;2023-05-19T04:12:27;7.20;99.90
1644;DHT22;46825;51.99869940;8.49421771;2023-05-19T04:13:27;7.20;99.90
1644;DHT22;46825;51.99869940;8.49421771;2023-05-19T04:14:28;7.20;99.90
1644;DHT22;46825;51.99869940;8.49421771;2023-05-19T04:15:28;7.30;99.90
1644;DHT22;46825;51.99869940;8.49421771;2023-05-19T04:16:29;7.30;99.90
1644;DHT22;46825;51.99869940;8.49421771;2023-05-19T04:17:30;7.30;99.90
1644;DHT22;46825;51.99869940;8.49421771;2023-05-19T04:18:31;7.30;99.90
1644;DHT22;46825;51.99869940;8.49421771;2023-05-19T04:19:31;7.30;99.90
1644;DHT22;46825;51.99869940;8.49421771;2023-05-19T04:20:32;7.30;99.90
1644;DHT22;46825;51.99869940;8.49421771;2023-05-19T04:21:33;7.30;99.90
1644;DHT22;46825;51.99869940;8.49421771;2023-05-19T04:22:34;7.40;99.90
1644;DHT22;46825;51.99869940;8.49421771;2023-05-19T04:23:35;7.40;99.90
1644;DHT22;46825;51.99869940;8.49421771;2023-05-19T04:24:35;7.40;99.90
1644;DHT22;46825;51.99869940;8.49421771;2023-05-19T04:25:36;7.40;99.90
1644;DHT22;46825;51.99869940;8.49421771;2023-05-19T04:26:37;7.40;99.90
1644;DHT22;46825;51.99869940;8.49421771;2023-05-19T04:27:41;7.40;99.90
1644;DHT22;46825;51.99869940;8.49421771;2023-05-19T04:28:42;7.40;99.90
1644;DHT22;46825;51.99869940;8.49421771;2023-05-19T04:29:44;7.50;99.90
1644;DHT22;46825;51.99869940;8.49421771;2023-05-19T04:30:45;7.60;99.90
1644;DHT22;46825;51.99869940;8.49421771;2023-05-19T04:31:45;7.50;99.90
1644;DHT22;46825;51.99869940;8.49421771;2023-05-19T04:32:47;7.50;99.90
1644;DHT22;46825;51.99869940;8.49421771;2023-05-19T04:33:49;7.50;99.90
1644;DHT22;46825;51.99869940;8.49421771;2023-05-19T04:34:52;7.50;99.90
1644;DHT22;46825;51.99869940;8.49421771;2023-05-19T04:35:53;7.60;99.90
1644;DHT22;46825;51.99869940;8.49421771;2023-05-19T04:36:53;7.60;99.90
1644;DHT22;46825;51.99869940;8.49421771;2023-05-19T04:37:54;7.60;99.90
1644;DHT22;46825;51.99869940;8.49421771;2023-05-19T04:38:58;7.60;99.90
1644;DHT22;46825;51.99869940;8.49421771;2023-05-19T04:40:04;7.60;99.90
1644;DHT22;46825;51.99869940;8.49421771;2023-05-19T04:41:06;7.70;99.90
1644;DHT22;46825;51.99869940;8.49421771;2023-05-19T04:42:10;7.70;99.90
1644;DHT22;46825;51.99869940;8.49421771;2023-05-19T04:43:11;7.80;99.90
1644;DHT22;46825;51.99869940;8.49421771;2023-05-19T04:44:11;7.80;99.90
1644;DHT22;46825;51.99869940;8.49421771;2023-05-19T04:45:12;7.90;99.90
1644;DHT22;46825;51.99869940;8.49421771;2023-05-19T04:46:13;7.90;99.90
1644;DHT22;46825;51.99869940;8.49421771;2023-05-19T04:47:14;7.90;99.90
1644;DHT22;46825;51.99869940;8.49421771;2023-05-19T04:48:15;7.90;99.90
1644;DHT22;46825;51.99869940;8.49421771;2023-05-19T04:49:15;8.00;99.90
1644;DHT22;46825;51.99869940;8.49421771;2023-05-19T04:50:18;8.00;99.90
1644;DHT22;46825;51.99869940;8.49421771;2023-05-19T04:51:19;8.10;99.90
1644;DHT22;46825;51.99869940;8.49421771;2023-05-19T04:52:20;8.00;99.90
1644;DHT22;46825;51.99869940;8.49421771;2023-05-19T04:53:21;8.10;99.90
1644;DHT22;46825;51.99869940;8.49421771;2023-05-19T04:54:24;8.10;99.90
1644;DHT22;46825;51.99869940;8.49421771;2023-05-19T04:55:25;8.40;99.90
1644;DHT22;46825;51.99869940;8.49421771;2023-05-19T04:56:26;8.20;99.90
1644;DHT22;46825;51.99869940;8.49421771;2023-05-19T04:57:28;8.30;99.90
1644;DHT22;46825;51.99869940;8.49421771;2023-05-19T04:58:28;8.30;99.90
1644;DHT22;46825;51.99869940;8.49421771;2023-05-19T04:59:29;8.30;99.90
1644;DHT22;46825;51.99869940;8.49421771;2023-05-19T05:00:30;8.30;99.90
1644;DHT22;46825;51.99869940;8.49421771;2023-05-19T05:01:30;8.50;99.90
1644;DHT22;46825;51.99869940;8.49421771;2023-05-19T05:02:32;8.40;99.90
1644;DHT22;46825;51.99869940;8.49421771;2023-05-19T05:03:33;8.40;99.90
1644;DHT22;46825;51.99869940;8.49421771;2023-05-19T05:04:34;8.40;99.90
1644;DHT22;46825;51.99869940;8.49421771;2023-05-19T05:05:34;8.40;99.90
1644;DHT22;46825;51.99869940;8.49421771;2023-05-19T05:06:35;8.50;99.90
1644;DHT22;46825;51.99869940;8.49421771;2023-05-19T05:07:37;8.60;99.90
1644;DHT22;46825;51.99869940;8.49421771;2023-05-19T05:08:38;8.50;99.90
1644;DHT22;46825;51.99869940;8.49421771;2023-05-19T05:09:40;8.50;99.90
1644;DHT22;46825;51.99869940;8.49421771;2023-05-19T05:10:41;8.60;99.90
1644;DHT22;46825;51.99869940;8.49421771;2023-05-19T05:11:42;8.70;99.90
1644;DHT22;46825;51.99869940;8.49421771;2023-05-19T05:12:43;8.70;99.90
1644;DHT22;46825;51.99869940;8.49421771;2023-05-19T05:13:44;8.70;99.90
1644;DHT22;46825;51.99869940;8.49421771;2023-05-19T05:14:45;8.80;99.90
1644;DHT22;46825;51.99869940;8.49421771;2023-05-19T05:15:46;8.80;99.90
1644;DHT22;46825;51.99869940;8.49421771;2023-05-19T05:16:47;8.80;99.90
1644;DHT22;46825;51.99869940;8.49421771;2023-05-19T05:17:47;8.90;99.90
1644;DHT22;46825;51.99869940;8.49421771;2023-05-19T05:18:48;8.90;99.90
1644;DHT22;46825;51.99869940;8.49421771;2023-05-19T05:19:49;9.00;99.90
1644;DHT22;46825;51.99869940;8.49421771;2023-05-19T05:20:51;9.00;99.90
1644;DHT22;46825;51.99869940;8.49421771;2023-05-19T05:21:52;9.00;99.90
1644;DHT22;46825;51.99869940;8.49421771;2023-05-19T05:22:53;7.60;99.90
1644;DHT22;46825;51.99869940;8.49421771;2023-05-19T05:23:54;9.10;99.90
1644;DHT22;46825;51.99869940;8.49421771;2023-05-19T05:24:55;9.20;99.90
1644;DHT22;46825;51.99869940;8.49421771;2023-05-19T05:25:56;9.20;99.90
1644;DHT22;46825;51.99869940;8.49421771;2023-05-19T05:26:56;9.20;99.90
1644;DHT22;46825;51.99869940;8.49421771;2023-05-19T05:27:58;9.20;99.90
1644;DHT22;46825;51.99869940;8.49421771;2023-05-19T05:29:04;9.20;99.90
1644;DHT22;46825;51.99869940;8.49421771;2023-05-19T05:30:05;9.40;99.90
1644;DHT22;46825;51.99869940;8.49421771;2023-05-19T05:31:06;9.30;99.90
1644;DHT22;46825;51.99869940;8.49421771;2023-05-19T05:32:06;9.40;99.90
1644;DHT22;46825;51.99869940;8.49421771;2023-05-19T05:33:07;9.40;99.90
1644;DHT22;46825;51.99869940;8.49421771;2023-05-19T05:34:08;9.40;99.90
1644;DHT22;46825;51.99869940;8.49421771;2023-05-19T05:35:09;9.40;99.90
1644;DHT22;46825;51.99869940;8.49421771;2023-05-19T05:36:10;9.60;99.90
1644;DHT22;46825;51.99869940;8.49421771;2023-05-19T05:37:10;9.00;99.90
1644;DHT22;46825;51.99869940;8.49421771;2023-05-19T05:38:11;9.50;99.90
1644;DHT22;46825;51.99869940;8.49421771;2023-05-19T05:39:12;9.60;99.90
1644;DHT22;46825;51.99869940;8.49421771;2023-05-19T05:40:13;9.60;99.90
1644;DHT22;46825;51.99869940;8.49421771;2023-05-19T05:41:14;9.60;99.90
1644;DHT22;46825;51.99869940;8.49421771;2023-05-19T05:42:15;9.60;99.90
1644;DHT22;46825;51.99869940;8.49421771;2023-05-19T05:43:15;9.70;99.90
1644;DHT22;46825;51.99869940;8.49421771;2023-05-19T05:44:16;9.80;99.90
1644;DHT22;46825;51.99869940;8.49421771;2023-05-19T05:45:16;9.70;99.90
1644;DHT22;46825;51.99869940;8.49421771;2023-05-19T05:46:17;9.70;99.90
1644;DHT22;46825;51.99869940;8.49421771;2023-05-19T05:47:18;9.80;99.90
1644;DHT22;46825;51.99869940;8.49421771;2023-05-19T05:48:19;9.80;99.90
1644;DHT22;46825;51.99869940;8.49421771;2023-05-19T05:49:20;9.80;99.90
1644;DHT22;46825;51.99869940;8.49421771;2023-05-19T05:50:20;9.80;99.90
1644;DHT22;46825;51.99869940;8.49421771;2023-05-19T05:51:21;9.90;99.90
1644;DHT22;46825;51.99869940;8.49421771;2023-05-19T05:52:26;9.90;99.90
1644;DHT22;46825;51.99869940;8.49421771;2023-05-19T05:53:29;10.00;99.90
1644;DHT22;46825;51.99869940;8.49421771;2023-05-19T05:54:31;10.00;99.90
1644;DHT22;46825;51.99869940;8.49421771;2023-05-19T05:55:32;10.00;99.90
1644;DHT22;46825;51.99869940;8.49421771;2023-05-19T05:56:33;10.10;99.90
1644;DHT22;46825;51.99869940;8.49421771;2023-05-19T05:57:36;10.10;99.90